sensor_id;sensor_type;location;lat;lon;timestamp;P1;durP1;ratioP1;P2;durP2;ratioP2
9005;SDS011;62284;50.702;7.140;2022-12-10T00:02:13;37.43;;;34.10;;
9005;SDS011;62284;50.702;7.140;2022-12-10T00:04:40;37.63;;;34.20;;
9005;SDS011;62284;50.702;7.140;2022-12-10T00:07:07;37.53;;;34.23;;
9005;SDS011;62284;50.702;7.140;2022-12-10T00:09:34;37.27;;;33.77;;
9005;SDS011;62284;50.702;7.140;2022-12-10T00:12:02;37.93;;;34.53;;
9005;SDS011;62284;50.702;7.140;2022-12-10T00:14:30;36.50;;;33.27;;
9005;SDS011;62284;50.702;7.140;2022-12-10T00:16:56;37.13;;;34.00;;
9005;SDS011;62284;50.702;7.140;2022-12-10T00:19:23;36.67;;;33.40;;
9005;SDS011;62284;50.702;7.140;2022-12-10T00:21:50;37.53;;;33.93;;
9005;SDS011;62284;50.702;7.140;2022-12-10T00:24:17;36.73;;;33.57;;
9005;SDS011;62284;50.702;7.140;2022-12-10T00:26:44;36.93;;;33.73;;
9005;SDS011;62284;50.702;7.140;2022-12-10T00:29:12;37.00;;;33.60;;
9005;SDS011;62284;50.702;7.140;2022-12-10T00:31:39;37.73;;;34.33;;
9005;SDS011;62284;50.702;7.140;2022-12-10T00:34:07;38.33;;;34.77;;
9005;SDS011;62284;50.702;7.140;2022-12-10T00:36:36;37.60;;;34.20;;
9005;SDS011;62284;50.702;7.140;2022-12-10T00:39:04;27.67;;;25.23;;
9005;SDS011;62284;50.702;7.140;2022-12-10T00:41:31;35.00;;;31.90;;
9005;SDS011;62284;50.702;7.140;2022-12-10T00:43:58;35.43;;;32.33;;
9005;SDS011;62284;50.702;7.140;2022-12-10T00:46:26;36.07;;;32.97;;
9005;SDS011;62284;50.702;7.140;2022-12-10T00:48:54;35.10;;;32.03;;
9005;SDS011;62284;50.702;7.140;2022-12-10T00:51:21;36.93;;;33.73;;
9005;SDS011;62284;50.702;7.140;2022-12-10T00:53:50;35.23;;;32.13;;
9005;SDS011;62284;50.702;7.140;2022-12-10T00:56:18;35.20;;;32.00;;
9005;SDS011;62284;50.702;7.140;2022-12-10T00:58:47;32.63;;;29.83;;
9005;SDS011;62284;50.702;7.140;2022-12-10T01:01:15;36.03;;;32.93;;
9005;SDS011;62284;50.702;7.140;2022-12-10T01:03:46;35.70;;;32.67;;
9005;SDS011;62284;50.702;7.140;2022-12-10T01:06:15;35.83;;;32.83;;
9005;SDS011;62284;50.702;7.140;2022-12-10T01:08:43;34.47;;;31.40;;
9005;SDS011;62284;50.702;7.140;2022-12-10T01:11:11;36.60;;;33.40;;
9005;SDS011;62284;50.702;7.140;2022-12-10T01:13:40;35.00;;;32.00;;
9005;SDS011;62284;50.702;7.140;2022-12-10T01:16:09;33.97;;;30.97;;
9005;SDS011;62284;50.702;7.140;2022-12-10T01:18:37;34.87;;;31.87;;
9005;SDS011;62284;50.702;7.140;2022-12-10T01:21:06;35.33;;;32.33;;
9005;SDS011;62284;50.702;7.140;2022-12-10T01:23:35;34.00;;;31.13;;
9005;SDS011;62284;50.702;7.140;2022-12-10T01:26:05;35.07;;;32.17;;
9005;SDS011;62284;50.702;7.140;2022-12-10T01:28:35;35.53;;;32.47;;
9005;SDS011;62284;50.702;7.140;2022-12-10T01:31:03;36.77;;;33.57;;
9005;SDS011;62284;50.702;7.140;2022-12-10T01:33:31;37.57;;;34.37;;
9005;SDS011;62284;50.702;7.140;2022-12-10T01:36:01;36.57;;;33.40;;
9005;SDS011;62284;50.702;7.140;2022-12-10T01:38:30;35.47;;;32.27;;
9005;SDS011;62284;50.702;7.140;2022-12-10T01:40:56;36.33;;;33.10;;
9005;SDS011;62284;50.702;7.140;2022-12-10T01:43:24;36.60;;;33.53;;
9005;SDS011;62284;50.702;7.140;2022-12-10T01:45:51;37.00;;;33.80;;
9005;SDS011;62284;50.702;7.140;2022-12-10T01:48:18;35.13;;;32.17;;
9005;SDS011;62284;50.702;7.140;2022-12-10T01:50:45;36.67;;;33.47;;
9005;SDS011;62284;50.702;7.140;2022-12-10T01:53:12;35.53;;;32.53;;
9005;SDS011;62284;50.702;7.140;2022-12-10T01:55:43;37.40;;;34.20;;
9005;SDS011;62284;50.702;7.140;2022-12-10T01:58:13;39.23;;;35.77;;
9005;SDS011;62284;50.702;7.140;2022-12-10T02:00:43;36.43;;;33.13;;
9005;SDS011;62284;50.702;7.140;2022-12-10T02:03:19;34.97;;;31.97;;
9005;SDS011;62284;50.702;7.140;2022-12-10T02:05:55;36.50;;;33.07;;
9005;SDS011;62284;50.702;7.140;2022-12-10T02:08:30;36.80;;;33.57;;
9005;SDS011;62284;50.702;7.140;2022-12-10T02:11:07;36.03;;;32.90;;
9005;SDS011;62284;50.702;7.140;2022-12-10T02:13:43;35.17;;;32.23;;
9005;SDS011;62284;50.702;7.140;2022-12-10T02:16:20;36.23;;;32.90;;
9005;SDS011;62284;50.702;7.140;2022-12-10T02:18:53;35.67;;;32.50;;
9005;SDS011;62284;50.702;7.140;2022-12-10T02:21:25;34.90;;;31.90;;
9005;SDS011;62284;50.702;7.140;2022-12-10T02:24:01;35.47;;;32.37;;
9005;SDS011;62284;50.702;7.140;2022-12-10T02:26:34;36.80;;;33.67;;
9005;SDS011;62284;50.702;7.140;2022-12-10T02:29:12;35.40;;;32.27;;
9005;SDS011;62284;50.702;7.140;2022-12-10T02:31:42;37.10;;;33.90;;
9005;SDS011;62284;50.702;7.140;2022-12-10T02:34:12;36.47;;;33.37;;
9005;SDS011;62284;50.702;7.140;2022-12-10T02:36:41;36.40;;;33.30;;
9005;SDS011;62284;50.702;7.140;2022-12-10T02:39:12;35.00;;;32.13;;
9005;SDS011;62284;50.702;7.140;2022-12-10T02:41:43;36.53;;;33.23;;
9005;SDS011;62284;50.702;7.140;2022-12-10T02:44:14;34.20;;;31.17;;
9005;SDS011;62284;50.702;7.140;2022-12-10T02:46:45;38.13;;;34.80;;
9005;SDS011;62284;50.702;7.140;2022-12-10T02:49:14;36.00;;;33.00;;
9005;SDS011;62284;50.702;7.140;2022-12-10T02:51:43;35.47;;;32.47;;
9005;SDS011;62284;50.702;7.140;2022-12-10T02:57:01;37.17;;;33.90;;
9005;SDS011;62284;50.702;7.140;2022-12-10T02:59:37;34.60;;;31.63;;
9005;SDS011;62284;50.702;7.140;2022-12-10T03:02:16;35.20;;;32.13;;
9005;SDS011;62284;50.702;7.140;2022-12-10T03:04:46;37.70;;;34.23;;
9005;SDS011;62284;50.702;7.140;2022-12-10T03:07:21;35.53;;;32.57;;
9005;SDS011;62284;50.702;7.140;2022-12-10T03:09:55;33.03;;;30.23;;
9005;SDS011;62284;50.702;7.140;2022-12-10T03:12:28;36.27;;;33.00;;
9005;SDS011;62284;50.702;7.140;2022-12-10T03:15:01;34.57;;;31.60;;
9005;SDS011;62284;50.702;7.140;2022-12-10T03:17:31;35.97;;;32.87;;
9005;SDS011;62284;50.702;7.140;2022-12-10T03:19:58;36.13;;;32.93;;
9005;SDS011;62284;50.702;7.140;2022-12-10T03:22:27;35.97;;;32.87;;
9005;SDS011;62284;50.702;7.140;2022-12-10T03:24:55;36.60;;;33.37;;
9005;SDS011;62284;50.702;7.140;2022-12-10T03:27:24;34.23;;;31.23;;
9005;SDS011;62284;50.702;7.140;2022-12-10T03:29:54;35.53;;;32.30;;
9005;SDS011;62284;50.702;7.140;2022-12-10T03:32:27;35.43;;;32.40;;
9005;SDS011;62284;50.702;7.140;2022-12-10T03:34:55;34.87;;;31.97;;
9005;SDS011;62284;50.702;7.140;2022-12-10T03:37:25;34.17;;;31.10;;
9005;SDS011;62284;50.702;7.140;2022-12-10T03:39:53;34.80;;;31.80;;
9005;SDS011;62284;50.702;7.140;2022-12-10T03:42:21;34.97;;;31.87;;
9005;SDS011;62284;50.702;7.140;2022-12-10T03:44:49;34.73;;;31.73;;
9005;SDS011;62284;50.702;7.140;2022-12-10T03:47:17;35.07;;;32.03;;
9005;SDS011;62284;50.702;7.140;2022-12-10T03:49:46;35.57;;;32.43;;
9005;SDS011;62284;50.702;7.140;2022-12-10T03:52:13;34.60;;;31.50;;
9005;SDS011;62284;50.702;7.140;2022-12-10T03:54:40;35.87;;;32.67;;
9005;SDS011;62284;50.702;7.140;2022-12-10T03:57:07;36.70;;;33.50;;
9005;SDS011;62284;50.702;7.140;2022-12-10T03:59:34;36.00;;;32.83;;
9005;SDS011;62284;50.702;7.140;2022-12-10T04:02:01;37.73;;;34.40;;
9005;SDS011;62284;50.702;7.140;2022-12-10T04:04:29;36.57;;;33.27;;
9005;SDS011;62284;50.702;7.140;2022-12-10T04:06:57;35.70;;;32.70;;
9005;SDS011;62284;50.702;7.140;2022-12-10T04:09:24;36.77;;;33.53;;
9005;SDS011;62284;50.702;7.140;2022-12-10T04:11:54;37.70;;;34.40;;
9005;SDS011;62284;50.702;7.140;2022-12-10T04:14:22;38.03;;;34.47;;
9005;SDS011;62284;50.702;7.140;2022-12-10T04:17:07;37.53;;;34.07;;
9005;SDS011;62284;50.702;7.140;2022-12-10T04:19:34;37.40;;;33.87;;
9005;SDS011;62284;50.702;7.140;2022-12-10T04:22:03;39.10;;;35.43;;
9005;SDS011;62284;50.702;7.140;2022-12-10T04:24:48;38.30;;;34.60;;
9005;SDS011;62284;50.702;7.140;2022-12-10T04:27:47;38.60;;;34.83;;
9005;SDS011;62284;50.702;7.140;2022-12-10T04:30:14;38.50;;;34.80;;
9005;SDS011;62284;50.702;7.140;2022-12-10T04:32:41;38.00;;;34.50;;
9005;SDS011;62284;50.702;7.140;2022-12-10T04:35:08;39.03;;;35.37;;
9005;SDS011;62284;50.702;7.140;2022-12-10T04:37:37;40.30;;;36.57;;
9005;SDS011;62284;50.702;7.140;2022-12-10T04:40:04;39.37;;;35.77;;
9005;SDS011;62284;50.702;7.140;2022-12-10T04:42:32;38.57;;;34.97;;
9005;SDS011;62284;50.702;7.140;2022-12-10T04:44:59;37.50;;;34.20;;
9005;SDS011;62284;50.702;7.140;2022-12-10T04:47:25;36.47;;;33.23;;
9005;SDS011;62284;50.702;7.140;2022-12-10T04:49:52;37.90;;;34.27;;
9005;SDS011;62284;50.702;7.140;2022-12-10T04:52:19;37.27;;;34.03;;
9005;SDS011;62284;50.702;7.140;2022-12-10T04:54:47;36.70;;;33.37;;
9005;SDS011;62284;50.702;7.140;2022-12-10T04:57:14;37.13;;;33.83;;
9005;SDS011;62284;50.702;7.140;2022-12-10T04:59:41;36.10;;;32.93;;
9005;SDS011;62284;50.702;7.140;2022-12-10T05:02:08;38.87;;;35.47;;
9005;SDS011;62284;50.702;7.140;2022-12-10T05:04:35;39.03;;;35.53;;
9005;SDS011;62284;50.702;7.140;2022-12-10T05:07:02;36.70;;;33.43;;
9005;SDS011;62284;50.702;7.140;2022-12-10T05:09:29;39.30;;;35.80;;
9005;SDS011;62284;50.702;7.140;2022-12-10T05:11:57;37.77;;;34.43;;
9005;SDS011;62284;50.702;7.140;2022-12-10T05:14:24;39.10;;;35.60;;
9005;SDS011;62284;50.702;7.140;2022-12-10T05:16:51;38.33;;;34.93;;
9005;SDS011;62284;50.702;7.140;2022-12-10T05:19:18;38.30;;;34.93;;
9005;SDS011;62284;50.702;7.140;2022-12-10T05:21:46;37.43;;;34.13;;
9005;SDS011;62284;50.702;7.140;2022-12-10T05:24:31;38.67;;;35.30;;
9005;SDS011;62284;50.702;7.140;2022-12-10T05:27:00;37.10;;;33.80;;
9005;SDS011;62284;50.702;7.140;2022-12-10T05:29:27;36.03;;;33.03;;
9005;SDS011;62284;50.702;7.140;2022-12-10T05:31:54;34.80;;;31.97;;
9005;SDS011;62284;50.702;7.140;2022-12-10T05:34:21;35.47;;;32.47;;
9005;SDS011;62284;50.702;7.140;2022-12-10T05:36:48;36.27;;;33.03;;
9005;SDS011;62284;50.702;7.140;2022-12-10T05:39:15;37.30;;;33.90;;
9005;SDS011;62284;50.702;7.140;2022-12-10T05:41:42;37.27;;;33.87;;
9005;SDS011;62284;50.702;7.140;2022-12-10T05:44:11;37.40;;;34.30;;
9005;SDS011;62284;50.702;7.140;2022-12-10T05:46:38;37.77;;;34.30;;
9005;SDS011;62284;50.702;7.140;2022-12-10T05:49:06;37.47;;;34.23;;
9005;SDS011;62284;50.702;7.140;2022-12-10T05:51:34;39.70;;;36.10;;
9005;SDS011;62284;50.702;7.140;2022-12-10T05:54:03;41.73;;;37.93;;
9005;SDS011;62284;50.702;7.140;2022-12-10T05:56:30;38.67;;;35.27;;
9005;SDS011;62284;50.702;7.140;2022-12-10T05:58:58;39.77;;;36.17;;
9005;SDS011;62284;50.702;7.140;2022-12-10T06:01:28;39.70;;;36.03;;
9005;SDS011;62284;50.702;7.140;2022-12-10T06:03:56;41.50;;;37.80;;
9005;SDS011;62284;50.702;7.140;2022-12-10T06:06:25;40.53;;;36.90;;
9005;SDS011;62284;50.702;7.140;2022-12-10T06:08:53;34.17;;;31.07;;
9005;SDS011;62284;50.702;7.140;2022-12-10T06:11:20;34.97;;;31.67;;
9005;SDS011;62284;50.702;7.140;2022-12-10T06:13:48;33.13;;;30.23;;
9005;SDS011;62284;50.702;7.140;2022-12-10T06:16:15;32.63;;;29.53;;
9005;SDS011;62284;50.702;7.140;2022-12-10T06:18:43;31.70;;;28.87;;
9005;SDS011;62284;50.702;7.140;2022-12-10T06:21:11;32.50;;;29.63;;
9005;SDS011;62284;50.702;7.140;2022-12-10T06:23:39;32.93;;;29.73;;
9005;SDS011;62284;50.702;7.140;2022-12-10T06:26:07;31.70;;;28.90;;
9005;SDS011;62284;50.702;7.140;2022-12-10T06:28:35;29.67;;;27.00;;
9005;SDS011;62284;50.702;7.140;2022-12-10T06:31:03;31.20;;;28.40;;
9005;SDS011;62284;50.702;7.140;2022-12-10T06:33:30;32.07;;;29.07;;
9005;SDS011;62284;50.702;7.140;2022-12-10T06:35:58;33.27;;;30.27;;
9005;SDS011;62284;50.702;7.140;2022-12-10T06:38:25;31.57;;;28.87;;
9005;SDS011;62284;50.702;7.140;2022-12-10T06:40:52;29.83;;;27.33;;
9005;SDS011;62284;50.702;7.140;2022-12-10T06:43:19;30.40;;;27.87;;
9005;SDS011;62284;50.702;7.140;2022-12-10T06:45:46;32.90;;;29.83;;
9005;SDS011;62284;50.702;7.140;2022-12-10T06:48:12;30.93;;;28.23;;
9005;SDS011;62284;50.702;7.140;2022-12-10T06:50:39;31.83;;;28.93;;
9005;SDS011;62284;50.702;7.140;2022-12-10T06:53:08;31.30;;;28.50;;
9005;SDS011;62284;50.702;7.140;2022-12-10T06:55:35;33.03;;;30.20;;
9005;SDS011;62284;50.702;7.140;2022-12-10T06:58:03;33.90;;;30.83;;
9005;SDS011;62284;50.702;7.140;2022-12-10T07:00:30;33.10;;;30.20;;
9005;SDS011;62284;50.702;7.140;2022-12-10T07:02:57;32.20;;;29.33;;
9005;SDS011;62284;50.702;7.140;2022-12-10T07:05:24;31.23;;;28.57;;
9005;SDS011;62284;50.702;7.140;2022-12-10T07:07:50;31.80;;;29.00;;
9005;SDS011;62284;50.702;7.140;2022-12-10T07:10:19;32.97;;;29.97;;
9005;SDS011;62284;50.702;7.140;2022-12-10T07:12:46;32.43;;;29.63;;
9005;SDS011;62284;50.702;7.140;2022-12-10T07:15:13;32.13;;;29.33;;
9005;SDS011;62284;50.702;7.140;2022-12-10T07:17:40;30.73;;;28.13;;
9005;SDS011;62284;50.702;7.140;2022-12-10T07:20:07;31.27;;;28.60;;
9005;SDS011;62284;50.702;7.140;2022-12-10T07:22:34;32.67;;;29.77;;
9005;SDS011;62284;50.702;7.140;2022-12-10T07:25:01;32.70;;;29.90;;
9005;SDS011;62284;50.702;7.140;2022-12-10T07:27:30;34.43;;;31.47;;
9005;SDS011;62284;50.702;7.140;2022-12-10T07:29:57;33.90;;;30.90;;
9005;SDS011;62284;50.702;7.140;2022-12-10T07:32:24;33.70;;;30.63;;
9005;SDS011;62284;50.702;7.140;2022-12-10T07:34:52;32.20;;;29.50;;
9005;SDS011;62284;50.702;7.140;2022-12-10T07:37:19;33.80;;;30.80;;
9005;SDS011;62284;50.702;7.140;2022-12-10T07:39:46;35.87;;;32.87;;
9005;SDS011;62284;50.702;7.140;2022-12-10T07:42:12;33.13;;;30.23;;
9005;SDS011;62284;50.702;7.140;2022-12-10T07:44:41;32.37;;;29.47;;
9005;SDS011;62284;50.702;7.140;2022-12-10T07:47:07;31.20;;;28.57;;
9005;SDS011;62284;50.702;7.140;2022-12-10T07:49:34;33.30;;;30.50;;
9005;SDS011;62284;50.702;7.140;2022-12-10T07:52:01;31.80;;;29.03;;
9005;SDS011;62284;50.702;7.140;2022-12-10T07:54:28;31.83;;;29.07;;
9005;SDS011;62284;50.702;7.140;2022-12-10T07:56:55;30.43;;;27.73;;
9005;SDS011;62284;50.702;7.140;2022-12-10T07:59:22;30.37;;;27.87;;
9005;SDS011;62284;50.702;7.140;2022-12-10T08:01:51;30.93;;;28.33;;
9005;SDS011;62284;50.702;7.140;2022-12-10T08:04:18;31.93;;;29.23;;
9005;SDS011;62284;50.702;7.140;2022-12-10T08:06:45;30.80;;;28.23;;
9005;SDS011;62284;50.702;7.140;2022-12-10T08:09:12;31.67;;;28.97;;
9005;SDS011;62284;50.702;7.140;2022-12-10T08:11:39;31.37;;;28.60;;
9005;SDS011;62284;50.702;7.140;2022-12-10T08:14:06;30.77;;;28.17;;
9005;SDS011;62284;50.702;7.140;2022-12-10T08:16:33;30.10;;;27.57;;
9005;SDS011;62284;50.702;7.140;2022-12-10T08:19:01;29.67;;;27.07;;
9005;SDS011;62284;50.702;7.140;2022-12-10T08:21:29;31.10;;;28.40;;
9005;SDS011;62284;50.702;7.140;2022-12-10T08:23:57;31.30;;;28.53;;
9005;SDS011;62284;50.702;7.140;2022-12-10T08:26:25;30.83;;;28.23;;
9005;SDS011;62284;50.702;7.140;2022-12-10T08:28:53;31.23;;;28.43;;
9005;SDS011;62284;50.702;7.140;2022-12-10T08:31:22;31.50;;;29.00;;
9005;SDS011;62284;50.702;7.140;2022-12-10T08:33:50;29.23;;;26.77;;
9005;SDS011;62284;50.702;7.140;2022-12-10T08:36:18;30.03;;;27.43;;
9005;SDS011;62284;50.702;7.140;2022-12-10T08:38:45;31.63;;;29.00;;
9005;SDS011;62284;50.702;7.140;2022-12-10T08:41:14;30.57;;;27.97;;
9005;SDS011;62284;50.702;7.140;2022-12-10T08:43:42;31.43;;;28.83;;
9005;SDS011;62284;50.702;7.140;2022-12-10T08:46:10;30.97;;;28.37;;
9005;SDS011;62284;50.702;7.140;2022-12-10T08:48:38;29.40;;;26.97;;
9005;SDS011;62284;50.702;7.140;2022-12-10T08:51:05;28.63;;;26.33;;
9005;SDS011;62284;50.702;7.140;2022-12-10T08:53:35;30.17;;;27.77;;
9005;SDS011;62284;50.702;7.140;2022-12-10T08:56:02;29.10;;;26.77;;
9005;SDS011;62284;50.702;7.140;2022-12-10T08:58:29;29.97;;;27.40;;
9005;SDS011;62284;50.702;7.140;2022-12-10T09:00:56;30.50;;;28.00;;
9005;SDS011;62284;50.702;7.140;2022-12-10T09:03:24;30.30;;;27.80;;
9005;SDS011;62284;50.702;7.140;2022-12-10T09:05:51;29.10;;;26.83;;
9005;SDS011;62284;50.702;7.140;2022-12-10T09:08:17;28.60;;;26.20;;
9005;SDS011;62284;50.702;7.140;2022-12-10T09:10:46;31.77;;;29.07;;
9005;SDS011;62284;50.702;7.140;2022-12-10T09:13:12;27.57;;;25.23;;
9005;SDS011;62284;50.702;7.140;2022-12-10T09:15:39;23.90;;;22.00;;
9005;SDS011;62284;50.702;7.140;2022-12-10T09:18:06;26.43;;;24.30;;
9005;SDS011;62284;50.702;7.140;2022-12-10T09:20:33;26.87;;;24.77;;
9005;SDS011;62284;50.702;7.140;2022-12-10T09:23:00;30.27;;;27.77;;
9005;SDS011;62284;50.702;7.140;2022-12-10T09:25:27;29.07;;;26.57;;
9005;SDS011;62284;50.702;7.140;2022-12-10T09:27:55;28.40;;;26.00;;
9005;SDS011;62284;50.702;7.140;2022-12-10T09:30:22;27.77;;;25.57;;
9005;SDS011;62284;50.702;7.140;2022-12-10T09:32:49;27.73;;;25.53;;
9005;SDS011;62284;50.702;7.140;2022-12-10T09:35:15;28.53;;;26.23;;
9005;SDS011;62284;50.702;7.140;2022-12-10T09:37:42;27.90;;;25.70;;
9005;SDS011;62284;50.702;7.140;2022-12-10T09:40:10;26.47;;;24.37;;
9005;SDS011;62284;50.702;7.140;2022-12-10T09:42:43;27.00;;;24.77;;
9005;SDS011;62284;50.702;7.140;2022-12-10T09:45:19;24.53;;;22.53;;
9005;SDS011;62284;50.702;7.140;2022-12-10T09:47:54;25.23;;;23.20;;
9005;SDS011;62284;50.702;7.140;2022-12-10T09:50:29;25.37;;;23.30;;
9005;SDS011;62284;50.702;7.140;2022-12-10T09:53:01;22.37;;;20.60;;
9005;SDS011;62284;50.702;7.140;2022-12-10T09:55:31;23.67;;;21.67;;
9005;SDS011;62284;50.702;7.140;2022-12-10T09:58:01;21.70;;;20.00;;
9005;SDS011;62284;50.702;7.140;2022-12-10T10:00:32;22.13;;;20.40;;
9005;SDS011;62284;50.702;7.140;2022-12-10T10:03:02;21.57;;;19.87;;
9005;SDS011;62284;50.702;7.140;2022-12-10T10:05:32;20.97;;;19.33;;
9005;SDS011;62284;50.702;7.140;2022-12-10T10:08:02;21.90;;;20.20;;
9005;SDS011;62284;50.702;7.140;2022-12-10T10:10:32;21.90;;;20.10;;
9005;SDS011;62284;50.702;7.140;2022-12-10T10:13:01;21.10;;;19.40;;
9005;SDS011;62284;50.702;7.140;2022-12-10T10:15:42;21.33;;;19.63;;
9005;SDS011;62284;50.702;7.140;2022-12-10T10:18:13;22.23;;;20.53;;
9005;SDS011;62284;50.702;7.140;2022-12-10T10:20:43;22.07;;;20.37;;
9005;SDS011;62284;50.702;7.140;2022-12-10T10:23:12;22.40;;;20.60;;
9005;SDS011;62284;50.702;7.140;2022-12-10T10:25:41;21.93;;;20.07;;
9005;SDS011;62284;50.702;7.140;2022-12-10T10:28:09;22.93;;;21.00;;
9005;SDS011;62284;50.702;7.140;2022-12-10T10:30:41;22.00;;;20.30;;
9005;SDS011;62284;50.702;7.140;2022-12-10T10:33:09;22.73;;;20.93;;
9005;SDS011;62284;50.702;7.140;2022-12-10T10:35:42;22.23;;;20.43;;
9005;SDS011;62284;50.702;7.140;2022-12-10T10:38:15;21.77;;;20.03;;
9005;SDS011;62284;50.702;7.140;2022-12-10T10:40:46;22.50;;;20.70;;
9005;SDS011;62284;50.702;7.140;2022-12-10T10:43:18;21.63;;;19.87;;
9005;SDS011;62284;50.702;7.140;2022-12-10T10:45:50;21.80;;;20.10;;
9005;SDS011;62284;50.702;7.140;2022-12-10T10:48:20;21.60;;;19.80;;
9005;SDS011;62284;50.702;7.140;2022-12-10T10:50:50;20.70;;;19.10;;
9005;SDS011;62284;50.702;7.140;2022-12-10T10:53:21;21.03;;;19.33;;
9005;SDS011;62284;50.702;7.140;2022-12-10T10:55:50;25.70;;;23.57;;
9005;SDS011;62284;50.702;7.140;2022-12-10T10:58:18;28.83;;;26.17;;
9005;SDS011;62284;50.702;7.140;2022-12-10T11:00:58;29.33;;;26.83;;
9005;SDS011;62284;50.702;7.140;2022-12-10T11:03:27;28.17;;;25.87;;
9005;SDS011;62284;50.702;7.140;2022-12-10T11:05:56;26.37;;;24.07;;
9005;SDS011;62284;50.702;7.140;2022-12-10T11:08:24;29.20;;;26.60;;
9005;SDS011;62284;50.702;7.140;2022-12-10T11:10:56;26.67;;;24.43;;
9005;SDS011;62284;50.702;7.140;2022-12-10T11:13:28;26.07;;;23.97;;
9005;SDS011;62284;50.702;7.140;2022-12-10T11:15:59;26.90;;;24.80;;
9005;SDS011;62284;50.702;7.140;2022-12-10T11:18:32;27.70;;;25.30;;
9005;SDS011;62284;50.702;7.140;2022-12-10T11:21:02;25.33;;;23.13;;
9005;SDS011;62284;50.702;7.140;2022-12-10T11:23:31;26.77;;;24.40;;
9005;SDS011;62284;50.702;7.140;2022-12-10T11:26:09;27.13;;;24.83;;
9005;SDS011;62284;50.702;7.140;2022-12-10T11:28:48;25.50;;;23.40;;
9005;SDS011;62284;50.702;7.140;2022-12-10T11:31:30;26.13;;;23.83;;
9005;SDS011;62284;50.702;7.140;2022-12-10T11:34:07;25.37;;;23.27;;
9005;SDS011;62284;50.702;7.140;2022-12-10T11:36:41;26.03;;;23.83;;
9005;SDS011;62284;50.702;7.140;2022-12-10T11:39:21;27.13;;;24.77;;
9005;SDS011;62284;50.702;7.140;2022-12-10T11:42:00;27.47;;;25.10;;
9005;SDS011;62284;50.702;7.140;2022-12-10T11:44:36;25.07;;;22.93;;
9005;SDS011;62284;50.702;7.140;2022-12-10T11:47:20;24.30;;;22.30;;
9005;SDS011;62284;50.702;7.140;2022-12-10T11:50:05;23.30;;;21.23;;
9005;SDS011;62284;50.702;7.140;2022-12-10T11:52:45;23.60;;;21.60;;
9005;SDS011;62284;50.702;7.140;2022-12-10T11:55:24;23.20;;;21.20;;
9005;SDS011;62284;50.702;7.140;2022-12-10T11:58:02;24.30;;;22.20;;
9005;SDS011;62284;50.702;7.140;2022-12-10T12:00:44;22.87;;;20.97;;
9005;SDS011;62284;50.702;7.140;2022-12-10T12:03:27;23.70;;;21.77;;
9005;SDS011;62284;50.702;7.140;2022-12-10T12:06:09;23.90;;;21.77;;
9005;SDS011;62284;50.702;7.140;2022-12-10T12:08:55;23.17;;;21.20;;
9005;SDS011;62284;50.702;7.140;2022-12-10T12:11:46;23.10;;;21.23;;
9005;SDS011;62284;50.702;7.140;2022-12-10T12:14:22;23.93;;;21.93;;
9005;SDS011;62284;50.702;7.140;2022-12-10T12:16:57;22.63;;;20.73;;
9005;SDS011;62284;50.702;7.140;2022-12-10T12:19:31;21.63;;;19.73;;
9005;SDS011;62284;50.702;7.140;2022-12-10T12:22:01;22.50;;;20.50;;
9005;SDS011;62284;50.702;7.140;2022-12-10T12:24:39;21.90;;;20.10;;
9005;SDS011;62284;50.702;7.140;2022-12-10T12:27:10;23.07;;;21.00;;
9005;SDS011;62284;50.702;7.140;2022-12-10T12:29:44;23.17;;;21.17;;
9005;SDS011;62284;50.702;7.140;2022-12-10T12:32:18;22.40;;;20.50;;
9005;SDS011;62284;50.702;7.140;2022-12-10T12:34:49;22.83;;;20.80;;
9005;SDS011;62284;50.702;7.140;2022-12-10T12:37:21;23.53;;;21.53;;
9005;SDS011;62284;50.702;7.140;2022-12-10T12:39:54;23.67;;;21.53;;
9005;SDS011;62284;50.702;7.140;2022-12-10T12:42:29;23.90;;;21.80;;
9005;SDS011;62284;50.702;7.140;2022-12-10T12:45:02;22.70;;;20.67;;
9005;SDS011;62284;50.702;7.140;2022-12-10T12:47:36;23.97;;;21.93;;
9005;SDS011;62284;50.702;7.140;2022-12-10T12:50:14;23.63;;;21.63;;
9005;SDS011;62284;50.702;7.140;2022-12-10T12:52:51;24.67;;;22.47;;
9005;SDS011;62284;50.702;7.140;2022-12-10T12:55:21;24.23;;;22.23;;
9005;SDS011;62284;50.702;7.140;2022-12-10T12:57:53;25.53;;;23.27;;
9005;SDS011;62284;50.702;7.140;2022-12-10T13:00:27;25.80;;;23.50;;
9005;SDS011;62284;50.702;7.140;2022-12-10T13:03:05;24.87;;;22.57;;
9005;SDS011;62284;50.702;7.140;2022-12-10T13:05:44;24.03;;;21.83;;
9005;SDS011;62284;50.702;7.140;2022-12-10T13:08:21;25.80;;;23.63;;
9005;SDS011;62284;50.702;7.140;2022-12-10T13:10:51;26.17;;;23.87;;
9005;SDS011;62284;50.702;7.140;2022-12-10T13:13:24;24.50;;;22.30;;
9005;SDS011;62284;50.702;7.140;2022-12-10T13:15:54;24.83;;;22.63;;
9005;SDS011;62284;50.702;7.140;2022-12-10T13:18:23;25.40;;;23.10;;
9005;SDS011;62284;50.702;7.140;2022-12-10T13:21:25;25.40;;;23.27;;
9005;SDS011;62284;50.702;7.140;2022-12-10T13:24:05;26.47;;;24.17;;
9005;SDS011;62284;50.702;7.140;2022-12-10T13:26:34;26.00;;;23.87;;
9005;SDS011;62284;50.702;7.140;2022-12-10T13:29:11;25.07;;;22.97;;
9005;SDS011;62284;50.702;7.140;2022-12-10T13:31:54;26.13;;;23.93;;
9005;SDS011;62284;50.702;7.140;2022-12-10T13:34:29;25.03;;;22.87;;
9005;SDS011;62284;50.702;7.140;2022-12-10T13:37:25;24.80;;;22.70;;
9005;SDS011;62284;50.702;7.140;2022-12-10T13:40:00;25.40;;;23.23;;
9005;SDS011;62284;50.702;7.140;2022-12-10T13:42:43;25.60;;;23.40;;
9005;SDS011;62284;50.702;7.140;2022-12-10T13:45:32;24.63;;;22.63;;
9005;SDS011;62284;50.702;7.140;2022-12-10T13:51:10;24.67;;;22.57;;
9005;SDS011;62284;50.702;7.140;2022-12-10T13:53:47;25.90;;;23.60;;
9005;SDS011;62284;50.702;7.140;2022-12-10T13:56:35;23.53;;;21.43;;
9005;SDS011;62284;50.702;7.140;2022-12-10T13:59:18;25.63;;;23.53;;
9005;SDS011;62284;50.702;7.140;2022-12-10T14:01:56;27.27;;;24.77;;
9005;SDS011;62284;50.702;7.140;2022-12-10T14:04:33;23.73;;;21.63;;
9005;SDS011;62284;50.702;7.140;2022-12-10T14:07:19;24.83;;;22.73;;
9005;SDS011;62284;50.702;7.140;2022-12-10T14:09:50;26.57;;;24.17;;
9005;SDS011;62284;50.702;7.140;2022-12-10T14:12:20;24.40;;;22.40;;
9005;SDS011;62284;50.702;7.140;2022-12-10T14:14:54;25.00;;;22.80;;
9005;SDS011;62284;50.702;7.140;2022-12-10T14:17:29;26.80;;;24.50;;
9005;SDS011;62284;50.702;7.140;2022-12-10T14:19:58;26.20;;;23.97;;
9005;SDS011;62284;50.702;7.140;2022-12-10T14:22:30;27.23;;;24.83;;
9005;SDS011;62284;50.702;7.140;2022-12-10T14:25:02;25.13;;;23.03;;
9005;SDS011;62284;50.702;7.140;2022-12-10T14:27:31;27.47;;;25.07;;
9005;SDS011;62284;50.702;7.140;2022-12-10T14:29:59;26.80;;;24.50;;
9005;SDS011;62284;50.702;7.140;2022-12-10T14:32:29;28.10;;;25.70;;
9005;SDS011;62284;50.702;7.140;2022-12-10T14:34:58;26.23;;;24.00;;
9005;SDS011;62284;50.702;7.140;2022-12-10T14:37:26;25.70;;;23.50;;
9005;SDS011;62284;50.702;7.140;2022-12-10T14:39:55;26.57;;;24.27;;
9005;SDS011;62284;50.702;7.140;2022-12-10T14:42:24;25.67;;;23.47;;
9005;SDS011;62284;50.702;7.140;2022-12-10T14:44:54;24.73;;;22.63;;
9005;SDS011;62284;50.702;7.140;2022-12-10T14:47:24;27.23;;;24.90;;
9005;SDS011;62284;50.702;7.140;2022-12-10T14:49:52;26.73;;;24.33;;
9005;SDS011;62284;50.702;7.140;2022-12-10T14:52:21;26.43;;;24.07;;
9005;SDS011;62284;50.702;7.140;2022-12-10T14:54:49;26.83;;;24.43;;
9005;SDS011;62284;50.702;7.140;2022-12-10T14:57:18;27.30;;;24.80;;
9005;SDS011;62284;50.702;7.140;2022-12-10T14:59:53;26.00;;;23.70;;